createdAt,value
2023-03-04T00:00:20.871Z,7.90
2023-03-04T00:03:07.201Z,7.90
2023-03-04T00:05:52.767Z,7.80
2023-03-04T00:08:38.560Z,7.80
2023-03-04T00:11:24.485Z,7.70
2023-03-04T00:14:09.904Z,7.50
2023-03-04T00:16:55.567Z,7.50
2023-03-04T00:19:41.250Z,7.50
2023-03-04T00:22:26.677Z,7.40
2023-03-04T00:25:12.206Z,7.40
2023-03-04T00:27:58.632Z,7.40
2023-03-04T00:30:44.879Z,7.50
2023-03-04T00:33:30.397Z,7.50
2023-03-04T00:36:16.172Z,7.40
2023-03-04T00:39:01.747Z,7.40
2023-03-04T00:41:47.592Z,7.40
2023-03-04T00:44:33.216Z,7.40
2023-03-04T00:47:18.965Z,7.40
2023-03-04T00:50:05.102Z,7.50
2023-03-04T00:52:50.658Z,7.50
2023-03-04T00:55:36.232Z,7.50
2023-03-04T00:58:22.085Z,7.60
2023-03-04T01:01:08.192Z,7.60
2023-03-04T01:03:53.548Z,7.60
2023-03-04T01:06:39.378Z,7.60
2023-03-04T01:09:26.752Z,7.50
2023-03-04T01:12:12.547Z,7.50
2023-03-04T01:14:58.225Z,7.50
2023-03-04T01:17:44.408Z,7.50
2023-03-04T01:20:30.330Z,7.40
2023-03-04T01:23:16.128Z,7.40
2023-03-04T01:26:02.312Z,7.40
2023-03-04T01:28:47.745Z,7.40
2023-03-04T01:31:33.012Z,7.30
2023-03-04T01:34:18.545Z,7.30
2023-03-04T01:37:03.954Z,7.30
2023-03-04T01:39:49.629Z,7.20
2023-03-04T01:42:35.969Z,7.20
2023-03-04T01:45:21.835Z,7.20
2023-03-04T01:48:09.192Z,7.20
2023-03-04T01:50:54.880Z,7.20
2023-03-04T01:53:40.482Z,7.20
2023-03-04T01:56:31.053Z,7.20
2023-03-04T01:59:18.304Z,7.20
2023-03-04T02:02:04.197Z,7.20
2023-03-04T02:04:49.672Z,7.20
2023-03-04T02:07:35.615Z,7.30
2023-03-04T02:10:21.088Z,7.20
2023-03-04T02:13:06.824Z,7.30
2023-03-04T02:15:52.500Z,7.30
2023-03-04T02:18:38.316Z,7.20
2023-03-04T02:21:27.200Z,7.20
2023-03-04T02:24:21.680Z,7.30
2023-03-04T02:27:08.547Z,7.20
2023-03-04T02:29:54.793Z,7.20
2023-03-04T02:32:40.682Z,7.20
2023-03-04T02:35:25.967Z,7.10
2023-03-04T02:38:11.904Z,7.10
2023-03-04T02:40:58.336Z,7.10
2023-03-04T02:43:45.091Z,7.00
2023-03-04T02:46:30.882Z,7.10
2023-03-04T02:49:16.956Z,7.10
2023-03-04T02:52:04.074Z,7.00
2023-03-04T02:54:50.354Z,7.00
2023-03-04T02:57:36.672Z,7.00
2023-03-04T03:00:22.363Z,7.00
2023-03-04T03:03:08.295Z,6.90
2023-03-04T03:05:54.551Z,7.00
2023-03-04T03:08:40.806Z,6.90
2023-03-04T03:11:26.814Z,6.90
2023-03-04T03:14:13.720Z,6.90
2023-03-04T03:16:59.252Z,6.80
2023-03-04T03:19:44.954Z,6.80
2023-03-04T03:22:31.048Z,6.80
2023-03-04T03:25:16.905Z,6.70
2023-03-04T03:28:02.688Z,6.70
2023-03-04T03:30:48.373Z,6.80
2023-03-04T03:33:34.306Z,6.70
2023-03-04T03:36:20.121Z,6.70
2023-03-04T03:39:06.677Z,6.60
2023-03-04T03:41:52.012Z,6.70
2023-03-04T03:44:37.367Z,6.70
2023-03-04T03:47:22.846Z,6.70
2023-03-04T03:50:08.907Z,6.70
2023-03-04T03:52:54.307Z,6.70
2023-03-04T03:55:39.851Z,6.70
2023-03-04T03:58:26.951Z,6.80
2023-03-04T04:01:12.834Z,6.80
2023-03-04T04:03:58.061Z,6.70
2023-03-04T04:06:43.859Z,6.80
2023-03-04T04:09:29.327Z,6.80
2023-03-04T04:12:16.617Z,6.80
2023-03-04T04:15:02.308Z,6.70
2023-03-04T04:17:48.002Z,6.60
2023-03-04T04:20:34.093Z,6.60
2023-03-04T04:23:19.651Z,6.60
2023-03-04T04:26:05.177Z,6.60
2023-03-04T04:28:51.005Z,6.60
2023-03-04T04:31:36.807Z,6.60
2023-03-04T04:34:22.139Z,6.60
2023-03-04T04:37:08.033Z,6.50
2023-03-04T04:39:55.403Z,6.50
2023-03-04T04:42:40.588Z,6.50
2023-03-04T04:45:26.436Z,6.50
2023-03-04T04:48:12.039Z,6.50
2023-03-04T04:50:57.896Z,6.40
2023-03-04T04:53:44.756Z,6.40
2023-03-04T04:56:31.030Z,6.30
2023-03-04T04:59:16.417Z,6.30
2023-03-04T05:02:02.032Z,6.30
2023-03-04T05:04:47.324Z,6.30
2023-03-04T05:07:34.046Z,6.20
2023-03-04T05:10:19.824Z,6.20
2023-03-04T05:13:05.389Z,6.20
2023-03-04T05:15:54.736Z,6.20
2023-03-04T05:18:40.483Z,6.10
2023-03-04T05:21:26.185Z,6.10
2023-03-04T05:24:11.874Z,6.10
2023-03-04T05:26:57.246Z,6.10
2023-03-04T05:29:44.780Z,6.10
2023-03-04T05:32:30.586Z,6.10
2023-03-04T05:35:16.340Z,6.10
2023-03-04T05:38:02.111Z,6.10
2023-03-04T05:40:47.716Z,6.10
2023-03-04T05:43:35.558Z,6.10
2023-03-04T05:46:25.720Z,6.10
2023-03-04T05:49:11.576Z,6.10
2023-03-04T05:51:57.392Z,6.10
2023-03-04T05:54:42.694Z,6.10
2023-03-04T05:57:28.223Z,6.10
2023-03-04T06:00:14.603Z,6.10
2023-03-04T06:02:59.945Z,6.10
2023-03-04T06:05:45.708Z,6.10
2023-03-04T06:08:33.752Z,6.20
2023-03-04T06:11:19.486Z,6.20
2023-03-04T06:14:05.320Z,6.30
2023-03-04T06:16:50.830Z,6.50
2023-03-04T06:19:38.017Z,6.40
2023-03-04T06:22:23.792Z,6.40
2023-03-04T06:25:09.588Z,6.50
2023-03-04T06:27:55.353Z,6.40
2023-03-04T06:30:41.216Z,6.50
2023-03-04T06:33:26.551Z,6.80
2023-03-04T06:36:12.241Z,7.30
2023-03-04T06:38:57.968Z,7.90
2023-03-04T06:41:43.625Z,8.70
2023-03-04T06:44:29.460Z,9.30
2023-03-04T06:47:15.239Z,9.30
2023-03-04T06:50:00.840Z,9.10
2023-03-04T06:52:46.904Z,9.20
2023-03-04T06:55:32.303Z,9.30
2023-03-04T06:58:17.574Z,9.40
2023-03-04T07:01:17.195Z,10.30
2023-03-04T07:04:02.672Z,11.10
2023-03-04T07:06:49.489Z,11.60
2023-03-04T07:09:35.220Z,12.00
2023-03-04T07:12:21.128Z,11.80
2023-03-04T07:15:06.825Z,11.70
2023-03-04T07:17:52.748Z,11.40
2023-03-04T07:20:38.646Z,11.30
2023-03-04T07:23:24.169Z,11.30
2023-03-04T07:26:10.014Z,11.30
2023-03-04T07:28:58.412Z,11.20
2023-03-04T07:31:43.997Z,11.40
2023-03-04T07:34:29.485Z,11.50
2023-03-04T07:37:15.211Z,11.50
2023-03-04T07:40:00.892Z,11.50
2023-03-04T07:42:53.338Z,11.60
2023-03-04T07:45:38.922Z,11.60
2023-03-04T07:48:24.599Z,11.80
2023-03-04T07:51:10.435Z,11.80
2023-03-04T07:53:56.799Z,11.80
2023-03-04T07:56:43.108Z,11.90
2023-03-04T07:59:28.738Z,12.00
2023-03-04T08:02:15.404Z,12.10
2023-03-04T08:05:01.095Z,12.20
2023-03-04T08:07:46.821Z,12.40
2023-03-04T08:10:32.528Z,12.50
2023-03-04T08:13:18.413Z,12.60
2023-03-04T08:16:04.601Z,12.80
2023-03-04T08:18:52.784Z,12.90
2023-03-04T08:21:38.275Z,13.00
2023-03-04T08:24:24.066Z,13.20
2023-03-04T08:27:13.579Z,13.30
2023-03-04T08:29:59.587Z,13.50
2023-03-04T08:32:45.427Z,13.70
2023-03-04T08:35:31.330Z,13.80
2023-03-04T08:38:17.030Z,13.80
2023-03-04T08:41:05.604Z,13.90
2023-03-04T08:43:51.223Z,13.90
2023-03-04T08:46:37.929Z,14.10
2023-03-04T08:49:23.600Z,14.20
2023-03-04T08:52:09.440Z,14.20
2023-03-04T08:54:54.913Z,14.20
2023-03-04T08:57:40.249Z,14.30
2023-03-04T09:00:25.688Z,14.20
2023-03-04T09:03:14.971Z,14.20
2023-03-04T09:06:01.664Z,14.00
2023-03-04T09:08:47.609Z,14.10
2023-03-04T09:11:33.352Z,14.20
2023-03-04T09:14:19.612Z,14.00
2023-03-04T09:17:05.647Z,14.00
2023-03-04T09:19:51.192Z,14.00
2023-03-04T09:22:37.386Z,13.90
2023-03-04T09:25:23.076Z,13.90
2023-03-04T09:28:08.330Z,13.80
2023-03-04T09:30:53.780Z,14.00
2023-03-04T09:33:41.561Z,14.00
2023-03-04T09:36:27.056Z,14.10
2023-03-04T09:39:12.936Z,14.20
2023-03-04T09:41:58.755Z,14.10
2023-03-04T09:44:46.291Z,14.10
2023-03-04T09:47:33.896Z,14.00
2023-03-04T09:50:20.446Z,14.00
2023-03-04T09:53:15.511Z,14.20
2023-03-04T09:56:03.068Z,14.30
2023-03-04T09:58:55.509Z,14.20
2023-03-04T10:01:48.699Z,14.10
2023-03-04T10:04:48.382Z,14.30
2023-03-04T10:07:37.106Z,14.50
2023-03-04T10:10:25.574Z,14.20
2023-03-04T10:13:22.190Z,14.20
2023-03-04T10:16:09.268Z,13.90
2023-03-04T10:18:57.648Z,13.70
2023-03-04T10:21:48.065Z,13.50
2023-03-04T10:24:35.310Z,13.70
2023-03-04T10:27:21.296Z,13.80
2023-03-04T10:30:13.246Z,13.80
2023-03-04T10:32:58.769Z,14.00
2023-03-04T10:35:47.259Z,13.70
2023-03-04T10:38:34.876Z,13.90
2023-03-04T10:41:21.653Z,13.80
2023-03-04T10:44:10.561Z,13.70
2023-03-04T10:46:57.279Z,13.70
2023-03-04T10:49:53.478Z,13.70
2023-03-04T10:52:41.209Z,13.90
2023-03-04T10:55:30.619Z,13.90
2023-03-04T10:58:18.815Z,14.00
2023-03-04T11:01:05.705Z,14.00
2023-03-04T11:03:51.938Z,14.20
2023-03-04T11:06:40.525Z,14.40
2023-03-04T11:09:27.801Z,14.50
2023-03-04T11:12:15.063Z,14.40
2023-03-04T11:15:02.090Z,14.40
2023-03-04T11:17:50.322Z,14.10
2023-03-04T11:20:48.619Z,13.80
2023-03-04T11:23:33.972Z,13.80
2023-03-04T11:26:21.442Z,14.10
2023-03-04T11:29:15.399Z,14.30
2023-03-04T11:32:01.307Z,14.30
2023-03-04T11:34:49.776Z,14.30
2023-03-04T11:37:37.590Z,14.40
2023-03-04T11:40:29.241Z,14.40
2023-03-04T11:43:32.251Z,14.50
2023-03-04T11:46:28.124Z,14.50
2023-03-04T11:49:19.874Z,14.60
2023-03-04T11:52:38.243Z,14.80
2023-03-04T11:55:27.138Z,15.00
2023-03-04T11:58:25.819Z,15.10
2023-03-04T12:01:20.429Z,14.90
2023-03-04T12:04:25.794Z,15.00
2023-03-04T12:07:30.406Z,15.10
2023-03-04T12:10:19.459Z,15.10
2023-03-04T12:13:08.106Z,15.10
2023-03-04T12:15:53.848Z,15.20
2023-03-04T12:18:39.675Z,15.00
2023-03-04T12:21:25.054Z,14.90
2023-03-04T12:24:22.522Z,14.90
2023-03-04T12:27:14.495Z,14.90
2023-03-04T12:30:05.695Z,15.00
2023-03-04T12:33:10.344Z,15.00
2023-03-04T12:36:11.638Z,15.10
2023-03-04T12:39:03.851Z,15.10
2023-03-04T12:41:55.647Z,15.20
2023-03-04T12:45:01.324Z,15.20
2023-03-04T12:48:07.041Z,15.40
2023-03-04T12:50:56.583Z,15.40
2023-03-04T12:54:03.708Z,15.50
2023-03-04T12:57:20.719Z,15.50
2023-03-04T13:00:09.013Z,15.50
2023-03-04T13:02:58.386Z,15.60
2023-03-04T13:05:46.982Z,15.70
2023-03-04T13:08:35.561Z,15.70
2023-03-04T13:11:31.217Z,15.60
2023-03-04T13:14:19.640Z,15.70
2023-03-04T13:17:37.921Z,15.60
2023-03-04T13:20:29.842Z,15.70
2023-03-04T13:23:15.099Z,15.70
2023-03-04T13:26:20.810Z,15.90
2023-03-04T13:29:09.994Z,15.90
2023-03-04T13:32:01.806Z,15.90
2023-03-04T13:34:53.792Z,15.90
2023-03-04T13:37:56.254Z,15.90
2023-03-04T13:40:41.935Z,16.00
2023-03-04T13:43:29.100Z,15.90
2023-03-04T13:46:21.132Z,16.00
2023-03-04T13:49:08.802Z,15.90
2023-03-04T13:51:54.994Z,16.00
2023-03-04T13:54:40.873Z,16.10
2023-03-04T13:57:26.586Z,16.00
2023-03-04T14:00:12.697Z,16.00
2023-03-04T14:03:12.267Z,15.90
2023-03-04T14:06:21.034Z,15.90
2023-03-04T14:09:13.011Z,15.80
2023-03-04T14:12:02.566Z,15.70
2023-03-04T14:14:48.259Z,15.80
2023-03-04T14:17:36.946Z,15.80
2023-03-04T14:20:43.444Z,15.80
2023-03-04T14:23:30.624Z,15.80
2023-03-04T14:26:18.030Z,15.80
2023-03-04T14:29:18.950Z,15.90
2023-03-04T14:32:04.789Z,15.90
2023-03-04T14:34:51.116Z,15.70
2023-03-04T14:37:46.944Z,15.60
2023-03-04T14:40:39.626Z,15.60
2023-03-04T14:43:26.083Z,15.70
2023-03-04T14:46:13.243Z,15.60
2023-03-04T14:48:58.988Z,15.70
2023-03-04T14:51:52.365Z,15.60
2023-03-04T14:54:39.027Z,15.60
2023-03-04T14:57:26.628Z,15.60
2023-03-04T15:00:21.647Z,15.60
2023-03-04T15:03:21.806Z,15.50
2023-03-04T15:06:21.571Z,15.40
2023-03-04T15:09:21.254Z,15.40
2023-03-04T15:12:08.004Z,15.30
2023-03-04T15:14:55.339Z,15.40
2023-03-04T15:17:42.643Z,15.40
2023-03-04T15:20:29.185Z,15.40
2023-03-04T15:23:14.867Z,15.40
2023-03-04T15:26:02.059Z,15.40
2023-03-04T15:28:48.016Z,15.40
2023-03-04T15:31:33.495Z,15.30
2023-03-04T15:34:20.097Z,15.30
2023-03-04T15:37:05.533Z,15.30
2023-03-04T15:39:51.412Z,15.30
2023-03-04T15:42:36.996Z,15.30
2023-03-04T15:45:24.873Z,15.20
2023-03-04T15:48:16.115Z,15.10
2023-03-04T15:51:02.401Z,15.10
2023-03-04T15:53:54.844Z,15.20
2023-03-04T15:56:40.940Z,15.10
2023-03-04T15:59:26.470Z,15.00
2023-03-04T16:02:19.039Z,15.00
2023-03-04T16:05:04.752Z,14.90
2023-03-04T16:07:50.968Z,14.80
2023-03-04T16:10:36.509Z,14.80
2023-03-04T16:13:23.857Z,14.80
2023-03-04T16:16:11.168Z,14.70
2023-03-04T16:18:56.907Z,14.60
2023-03-04T16:21:42.603Z,14.70
2023-03-04T16:24:30.297Z,14.60
2023-03-04T16:27:16.725Z,14.50
2023-03-04T16:30:01.893Z,14.50
2023-03-04T16:32:47.857Z,14.50
2023-03-04T16:35:35.972Z,14.40
2023-03-04T16:38:27.047Z,14.40
2023-03-04T16:41:13.975Z,15.40
2023-03-04T16:43:59.949Z,14.30
2023-03-04T16:46:45.616Z,14.20
2023-03-04T16:49:31.519Z,14.10
2023-03-04T16:52:29.314Z,14.20
2023-03-04T16:55:17.543Z,14.10
2023-03-04T16:58:03.810Z,14.10
2023-03-04T17:00:49.535Z,14.00
2023-03-04T17:03:34.884Z,14.00
2023-03-04T17:06:20.984Z,14.00
2023-03-04T17:09:07.591Z,13.90
2023-03-04T17:11:53.234Z,13.80
2023-03-04T17:14:39.334Z,13.70
2023-03-04T17:17:24.863Z,13.60
2023-03-04T17:20:16.037Z,13.60
2023-03-04T17:23:01.532Z,13.50
2023-03-04T17:25:54.416Z,13.40
2023-03-04T17:28:40.146Z,13.30
2023-03-04T17:31:25.908Z,13.20
2023-03-04T17:34:11.814Z,13.10
2023-03-04T17:36:57.616Z,13.00
2023-03-04T17:39:43.545Z,13.00
2023-03-04T17:42:29.168Z,12.90
2023-03-04T17:45:15.524Z,12.80
2023-03-04T17:48:01.371Z,12.60
2023-03-04T17:50:51.056Z,12.50
2023-03-04T17:53:38.051Z,12.40
2023-03-04T17:56:26.353Z,12.40
2023-03-04T17:59:13.334Z,12.20
2023-03-04T18:01:58.865Z,12.20
2023-03-04T18:04:50.125Z,12.10
2023-03-04T18:07:35.553Z,12.00
2023-03-04T18:10:21.406Z,11.90
2023-03-04T18:13:06.860Z,11.80
2023-03-04T18:15:52.298Z,11.70
2023-03-04T18:18:38.179Z,11.60
2023-03-04T18:21:23.981Z,11.50
2023-03-04T18:24:09.734Z,11.40
2023-03-04T18:26:56.552Z,11.30
2023-03-04T18:29:42.039Z,11.20
2023-03-04T18:32:28.392Z,11.20
2023-03-04T18:35:14.116Z,11.10
2023-03-04T18:38:00.162Z,11.00
2023-03-04T18:40:45.768Z,11.00
2023-03-04T18:43:31.451Z,10.90
2023-03-04T18:46:17.081Z,10.90
2023-03-04T18:49:03.771Z,10.80
2023-03-04T18:51:49.989Z,10.70
2023-03-04T18:54:35.349Z,10.70
2023-03-04T18:57:20.776Z,10.70
2023-03-04T19:00:06.636Z,10.60
2023-03-04T19:02:56.048Z,10.50
2023-03-04T19:05:42.870Z,10.40
2023-03-04T19:08:28.288Z,10.40
2023-03-04T19:11:14.923Z,10.40
2023-03-04T19:14:00.259Z,10.30
2023-03-04T19:16:46.264Z,10.30
2023-03-04T19:19:32.668Z,10.20
2023-03-04T19:22:18.227Z,10.10
2023-03-04T19:25:03.805Z,10.10
2023-03-04T19:27:51.339Z,10.10
2023-03-04T19:30:37.386Z,10.00
2023-03-04T19:33:22.818Z,10.00
2023-03-04T19:36:09.187Z,9.90
2023-03-04T19:38:55.522Z,9.90
2023-03-04T19:41:41.304Z,9.80
2023-03-04T19:44:26.604Z,9.80
2023-03-04T19:47:12.366Z,9.70
2023-03-04T19:49:57.954Z,9.70
2023-03-04T19:52:43.800Z,9.70
2023-03-04T19:55:29.516Z,9.60
2023-03-04T19:58:15.803Z,9.60
2023-03-04T20:01:01.577Z,9.50
2023-03-04T20:03:47.084Z,9.50
2023-03-04T20:06:35.061Z,9.50
2023-03-04T20:09:20.839Z,9.40
2023-03-04T20:12:06.468Z,9.40
2023-03-04T20:14:52.174Z,9.40
2023-03-04T20:17:38.986Z,9.40
2023-03-04T20:20:28.629Z,9.40
2023-03-04T20:23:16.090Z,9.40
2023-03-04T20:26:01.977Z,9.40
2023-03-04T20:28:48.833Z,9.30
2023-03-04T20:31:38.753Z,9.30
2023-03-04T20:34:26.709Z,9.30
2023-03-04T20:37:12.260Z,9.20
2023-03-04T20:39:58.130Z,9.20
2023-03-04T20:42:43.825Z,9.20
2023-03-04T20:45:29.333Z,9.10
2023-03-04T20:48:15.107Z,9.10
2023-03-04T20:51:00.952Z,9.10
2023-03-04T20:53:46.517Z,9.00
2023-03-04T20:56:32.405Z,9.00
2023-03-04T20:59:18.212Z,9.00
2023-03-04T21:02:04.427Z,8.90
2023-03-04T21:04:49.970Z,8.90
2023-03-04T21:07:35.536Z,8.90
2023-03-04T21:10:23.095Z,8.80
2023-03-04T21:13:11.375Z,8.80
2023-03-04T21:15:57.682Z,8.80
2023-03-04T21:18:43.793Z,8.70
2023-03-04T21:21:30.262Z,8.70
2023-03-04T21:24:16.750Z,8.70
2023-03-04T21:27:04.181Z,8.70
2023-03-04T21:29:50.056Z,8.60
2023-03-04T21:32:35.707Z,8.60
2023-03-04T21:35:21.184Z,8.60
2023-03-04T21:38:06.911Z,8.50
2023-03-04T21:40:53.013Z,8.50
2023-03-04T21:43:38.365Z,8.50
2023-03-04T21:46:23.677Z,8.40
2023-03-04T21:49:09.543Z,8.40
2023-03-04T21:51:55.376Z,8.40
2023-03-04T21:54:40.606Z,8.30
2023-03-04T21:57:26.654Z,8.30
2023-03-04T22:00:12.399Z,8.30
2023-03-04T22:02:58.316Z,8.20
2023-03-04T22:05:45.005Z,8.20
2023-03-04T22:08:30.805Z,8.20
2023-03-04T22:11:16.863Z,8.20
2023-03-04T22:14:02.836Z,8.20
2023-03-04T22:16:55.417Z,8.20
2023-03-04T22:19:41.396Z,8.20
2023-03-04T22:22:27.980Z,8.20
2023-03-04T22:25:13.507Z,8.20
2023-03-04T22:27:59.252Z,8.20
2023-03-04T22:30:44.929Z,8.20
2023-03-04T22:33:37.062Z,8.20
2023-03-04T22:36:22.576Z,8.20
2023-03-04T22:39:09.543Z,8.10
2023-03-04T22:41:55.297Z,8.10
2023-03-04T22:44:40.971Z,8.10
2023-03-04T22:47:26.871Z,8.00
2023-03-04T22:50:12.681Z,8.00
2023-03-04T22:52:58.207Z,8.00
2023-03-04T22:55:43.669Z,7.90
2023-03-04T22:58:29.326Z,7.90
2023-03-04T23:01:15.603Z,7.80
2023-03-04T23:04:01.634Z,7.80
2023-03-04T23:06:47.135Z,7.80
2023-03-04T23:09:32.724Z,7.70
2023-03-04T23:12:17.882Z,7.80
2023-03-04T23:15:04.286Z,7.80
2023-03-04T23:17:50.050Z,7.70
2023-03-04T23:20:36.163Z,7.70
2023-03-04T23:23:22.040Z,7.70
2023-03-04T23:26:13.888Z,7.70
2023-03-04T23:29:01.429Z,7.70
2023-03-04T23:31:47.008Z,7.70
2023-03-04T23:34:32.668Z,7.70
2023-03-04T23:37:18.053Z,7.70
2023-03-04T23:40:03.667Z,7.70
2023-03-04T23:42:49.223Z,7.70
2023-03-04T23:45:35.017Z,7.60
2023-03-04T23:48:20.648Z,7.60
2023-03-04T23:51:06.652Z,7.60
2023-03-04T23:53:52.376Z,7.60
2023-03-04T23:56:38.179Z,7.60
2023-03-04T23:59:23.987Z,7.50
